METAR Formatted Surface Weather Observation
Issued by NWS

Home | Current Version | Previous Version | Text Only | Print | Product List | Glossary On
Versions: 1 2 3
SAHW31 PHFO 250156
METAR PHMK 250154Z 03012G21KT 10SM FEW020 BKN050 26/19 A3003 RMK AO2
SLP170 T02560189 is the U.S. government's official web portal to all federal, state and local government web resources and services.